sensor_id;sensor_type;location;lat;lon;timestamp;temperature;humidity
24410;DHT22;12543;53.364;-1.504;2023-02-01T00:00:33;6.50;99.90
24410;DHT22;12543;53.364;-1.504;2023-02-01T00:03:01;6.50;99.90
24410;DHT22;12543;53.364;-1.504;2023-02-01T00:05:28;6.50;99.90
24410;DHT22;12543;53.364;-1.504;2023-02-01T00:07:55;6.50;99.90
24410;DHT22;12543;53.364;-1.504;2023-02-01T00:10:22;6.40;99.90
24410;DHT22;12543;53.364;-1.504;2023-02-01T00:12:50;6.50;99.90
24410;DHT22;12543;53.364;-1.504;2023-02-01T00:15:17;6.50;99.90
24410;DHT22;12543;53.364;-1.504;2023-02-01T00:17:44;6.50;99.90
24410;DHT22;12543;53.364;-1.504;2023-02-01T00:20:12;6.50;99.90
24410;DHT22;12543;53.364;-1.504;2023-02-01T00:22:39;6.50;99.90
24410;DHT22;12543;53.364;-1.504;2023-02-01T00:25:06;6.50;99.90
24410;DHT22;12543;53.364;-1.504;2023-02-01T00:27:33;6.50;99.90
24410;DHT22;12543;53.364;-1.504;2023-02-01T00:30:00;6.50;99.90
24410;DHT22;12543;53.364;-1.504;2023-02-01T00:32:28;6.50;99.90
24410;DHT22;12543;53.364;-1.504;2023-02-01T00:34:54;6.50;99.90
24410;DHT22;12543;53.364;-1.504;2023-02-01T00:37:21;6.50;99.90
24410;DHT22;12543;53.364;-1.504;2023-02-01T00:39:49;6.60;99.90
24410;DHT22;12543;53.364;-1.504;2023-02-01T00:42:17;6.50;99.90
24410;DHT22;12543;53.364;-1.504;2023-02-01T00:44:45;6.60;99.90
24410;DHT22;12543;53.364;-1.504;2023-02-01T00:47:12;6.60;99.90
24410;DHT22;12543;53.364;-1.504;2023-02-01T00:49:39;6.60;99.90
24410;DHT22;12543;53.364;-1.504;2023-02-01T00:52:06;6.60;99.90
24410;DHT22;12543;53.364;-1.504;2023-02-01T00:54:33;6.60;99.90
24410;DHT22;12543;53.364;-1.504;2023-02-01T00:57:01;6.60;99.90
24410;DHT22;12543;53.364;-1.504;2023-02-01T00:59:28;6.60;99.90
24410;DHT22;12543;53.364;-1.504;2023-02-01T01:01:55;6.60;99.90
24410;DHT22;12543;53.364;-1.504;2023-02-01T01:04:22;6.60;99.90
24410;DHT22;12543;53.364;-1.504;2023-02-01T01:06:49;6.60;99.90
24410;DHT22;12543;53.364;-1.504;2023-02-01T01:09:22;6.60;99.90
24410;DHT22;12543;53.364;-1.504;2023-02-01T01:11:55;6.70;99.90
24410;DHT22;12543;53.364;-1.504;2023-02-01T01:14:24;6.60;99.90
24410;DHT22;12543;53.364;-1.504;2023-02-01T01:16:52;6.70;99.90
24410;DHT22;12543;53.364;-1.504;2023-02-01T01:19:19;6.70;99.90
24410;DHT22;12543;53.364;-1.504;2023-02-01T01:21:46;6.70;99.90
24410;DHT22;12543;53.364;-1.504;2023-02-01T01:24:13;6.70;99.90
24410;DHT22;12543;53.364;-1.504;2023-02-01T01:26:40;6.70;99.90
24410;DHT22;12543;53.364;-1.504;2023-02-01T01:29:09;6.70;99.90
24410;DHT22;12543;53.364;-1.504;2023-02-01T01:31:37;6.70;99.90
24410;DHT22;12543;53.364;-1.504;2023-02-01T01:34:04;6.80;99.90
24410;DHT22;12543;53.364;-1.504;2023-02-01T01:36:31;6.70;99.90
24410;DHT22;12543;53.364;-1.504;2023-02-01T01:38:59;6.70;99.90
24410;DHT22;12543;53.364;-1.504;2023-02-01T01:41:29;6.70;99.90
24410;DHT22;12543;53.364;-1.504;2023-02-01T01:44:04;6.70;99.90
24410;DHT22;12543;53.364;-1.504;2023-02-01T01:46:35;6.60;99.90
24410;DHT22;12543;53.364;-1.504;2023-02-01T01:49:13;6.60;99.90
24410;DHT22;12543;53.364;-1.504;2023-02-01T01:51:46;6.50;99.90
24410;DHT22;12543;53.364;-1.504;2023-02-01T01:54:24;6.50;99.90
24410;DHT22;12543;53.364;-1.504;2023-02-01T01:56:58;6.40;99.90
24410;DHT22;12543;53.364;-1.504;2023-02-01T01:59:26;6.40;99.90
24410;DHT22;12543;53.364;-1.504;2023-02-01T02:01:54;6.40;99.90
24410;DHT22;12543;53.364;-1.504;2023-02-01T02:04:22;6.30;99.90
24410;DHT22;12543;53.364;-1.504;2023-02-01T02:07:04;6.30;99.90
24410;DHT22;12543;53.364;-1.504;2023-02-01T02:09:32;6.30;99.90
24410;DHT22;12543;53.364;-1.504;2023-02-01T02:11:59;6.30;99.90
24410;DHT22;12543;53.364;-1.504;2023-02-01T02:14:26;6.30;99.90
24410;DHT22;12543;53.364;-1.504;2023-02-01T02:17:20;6.30;99.90
24410;DHT22;12543;53.364;-1.504;2023-02-01T02:45:42;6.30;99.90
24410;DHT22;12543;53.364;-1.504;2023-02-01T02:48:46;6.30;99.90
24410;DHT22;12543;53.364;-1.504;2023-02-01T02:51:34;6.30;99.90
24410;DHT22;12543;53.364;-1.504;2023-02-01T02:54:31;6.30;99.90
24410;DHT22;12543;53.364;-1.504;2023-02-01T02:57:57;6.30;99.90
24410;DHT22;12543;53.364;-1.504;2023-02-01T03:00:37;6.30;99.90
24410;DHT22;12543;53.364;-1.504;2023-02-01T03:03:23;6.30;99.90
24410;DHT22;12543;53.364;-1.504;2023-02-01T03:06:16;6.30;99.90
24410;DHT22;12543;53.364;-1.504;2023-02-01T03:08:47;6.30;99.90
24410;DHT22;12543;53.364;-1.504;2023-02-01T03:11:15;6.30;99.90
24410;DHT22;12543;53.364;-1.504;2023-02-01T03:13:56;6.30;99.90
24410;DHT22;12543;53.364;-1.504;2023-02-01T03:16:36;6.30;99.90
24410;DHT22;12543;53.364;-1.504;2023-02-01T03:19:32;6.30;99.90
24410;DHT22;12543;53.364;-1.504;2023-02-01T03:22:04;6.20;99.90
24410;DHT22;12543;53.364;-1.504;2023-02-01T03:24:39;6.30;99.90
24410;DHT22;12543;53.364;-1.504;2023-02-01T03:27:36;6.30;99.90
24410;DHT22;12543;53.364;-1.504;2023-02-01T03:32:47;6.30;99.90
24410;DHT22;12543;53.364;-1.504;2023-02-01T03:35:57;6.20;99.90
24410;DHT22;12543;53.364;-1.504;2023-02-01T03:44:08;6.20;99.90
24410;DHT22;12543;53.364;-1.504;2023-02-01T03:46:43;6.20;99.90
24410;DHT22;12543;53.364;-1.504;2023-02-01T03:49:20;6.20;99.90
24410;DHT22;12543;53.364;-1.504;2023-02-01T03:51:50;6.10;99.90
24410;DHT22;12543;53.364;-1.504;2023-02-01T03:54:19;6.20;99.90
24410;DHT22;12543;53.364;-1.504;2023-02-01T03:56:47;6.20;99.90
24410;DHT22;12543;53.364;-1.504;2023-02-01T03:59:15;6.10;99.90
24410;DHT22;12543;53.364;-1.504;2023-02-01T04:01:43;6.10;99.90
24410;DHT22;12543;53.364;-1.504;2023-02-01T04:04:10;6.10;99.90
24410;DHT22;12543;53.364;-1.504;2023-02-01T04:06:38;6.10;99.90
24410;DHT22;12543;53.364;-1.504;2023-02-01T04:09:05;6.10;99.90
24410;DHT22;12543;53.364;-1.504;2023-02-01T04:11:32;6.10;99.90
24410;DHT22;12543;53.364;-1.504;2023-02-01T04:13:59;6.10;99.90
24410;DHT22;12543;53.364;-1.504;2023-02-01T04:16:31;6.10;99.90
24410;DHT22;12543;53.364;-1.504;2023-02-01T04:18:59;6.10;99.90
24410;DHT22;12543;53.364;-1.504;2023-02-01T04:21:27;6.10;99.90
24410;DHT22;12543;53.364;-1.504;2023-02-01T04:23:54;6.10;99.90
24410;DHT22;12543;53.364;-1.504;2023-02-01T04:26:21;6.10;99.90
24410;DHT22;12543;53.364;-1.504;2023-02-01T04:28:48;6.10;99.90
24410;DHT22;12543;53.364;-1.504;2023-02-01T04:31:16;6.10;99.90
24410;DHT22;12543;53.364;-1.504;2023-02-01T04:33:44;6.10;99.90
24410;DHT22;12543;53.364;-1.504;2023-02-01T04:36:11;6.10;99.90
24410;DHT22;12543;53.364;-1.504;2023-02-01T04:38:38;6.10;99.90
24410;DHT22;12543;53.364;-1.504;2023-02-01T04:41:05;6.10;99.90
24410;DHT22;12543;53.364;-1.504;2023-02-01T04:43:32;6.10;99.90
24410;DHT22;12543;53.364;-1.504;2023-02-01T04:46:00;6.10;99.90
24410;DHT22;12543;53.364;-1.504;2023-02-01T04:48:27;6.10;99.90
24410;DHT22;12543;53.364;-1.504;2023-02-01T04:50:54;6.10;99.90
24410;DHT22;12543;53.364;-1.504;2023-02-01T04:53:22;6.10;99.90
24410;DHT22;12543;53.364;-1.504;2023-02-01T04:55:49;6.20;99.90
24410;DHT22;12543;53.364;-1.504;2023-02-01T04:58:17;6.20;99.90
24410;DHT22;12543;53.364;-1.504;2023-02-01T05:00:44;6.20;99.90
24410;DHT22;12543;53.364;-1.504;2023-02-01T05:03:11;6.20;99.90
24410;DHT22;12543;53.364;-1.504;2023-02-01T05:05:38;6.20;99.90
24410;DHT22;12543;53.364;-1.504;2023-02-01T05:08:05;6.20;99.90
24410;DHT22;12543;53.364;-1.504;2023-02-01T05:10:32;6.20;99.90
24410;DHT22;12543;53.364;-1.504;2023-02-01T05:12:59;6.20;99.90
24410;DHT22;12543;53.364;-1.504;2023-02-01T05:15:45;6.20;99.90
24410;DHT22;12543;53.364;-1.504;2023-02-01T05:18:13;6.20;99.90
24410;DHT22;12543;53.364;-1.504;2023-02-01T05:20:40;6.20;99.90
24410;DHT22;12543;53.364;-1.504;2023-02-01T05:23:07;6.20;99.90
24410;DHT22;12543;53.364;-1.504;2023-02-01T05:25:34;6.20;99.90
24410;DHT22;12543;53.364;-1.504;2023-02-01T05:28:01;6.20;99.90
24410;DHT22;12543;53.364;-1.504;2023-02-01T05:30:28;6.20;99.90
24410;DHT22;12543;53.364;-1.504;2023-02-01T05:32:55;6.20;99.90
24410;DHT22;12543;53.364;-1.504;2023-02-01T05:35:22;6.20;99.90
24410;DHT22;12543;53.364;-1.504;2023-02-01T05:37:49;6.20;99.90
24410;DHT22;12543;53.364;-1.504;2023-02-01T05:40:16;6.30;99.90
24410;DHT22;12543;53.364;-1.504;2023-02-01T05:42:43;6.20;99.90
24410;DHT22;12543;53.364;-1.504;2023-02-01T05:45:10;6.30;99.90
24410;DHT22;12543;53.364;-1.504;2023-02-01T05:47:37;6.30;99.90
24410;DHT22;12543;53.364;-1.504;2023-02-01T05:50:05;6.30;99.90
24410;DHT22;12543;53.364;-1.504;2023-02-01T05:52:33;6.30;99.90
24410;DHT22;12543;53.364;-1.504;2023-02-01T05:55:00;6.30;99.90
24410;DHT22;12543;53.364;-1.504;2023-02-01T05:57:27;6.30;99.90
24410;DHT22;12543;53.364;-1.504;2023-02-01T05:59:55;6.30;99.90
24410;DHT22;12543;53.364;-1.504;2023-02-01T06:02:25;6.30;99.90
24410;DHT22;12543;53.364;-1.504;2023-02-01T06:04:52;6.30;99.90
24410;DHT22;12543;53.364;-1.504;2023-02-01T06:07:21;6.30;99.90
24410;DHT22;12543;53.364;-1.504;2023-02-01T06:09:48;6.30;99.90
24410;DHT22;12543;53.364;-1.504;2023-02-01T06:12:18;6.30;99.90
24410;DHT22;12543;53.364;-1.504;2023-02-01T06:14:45;6.30;99.90
24410;DHT22;12543;53.364;-1.504;2023-02-01T06:17:12;6.30;99.90
24410;DHT22;12543;53.364;-1.504;2023-02-01T06:19:39;6.40;99.90
24410;DHT22;12543;53.364;-1.504;2023-02-01T06:22:07;6.30;99.90
24410;DHT22;12543;53.364;-1.504;2023-02-01T06:24:34;6.40;99.90
24410;DHT22;12543;53.364;-1.504;2023-02-01T06:27:01;6.40;99.90
24410;DHT22;12543;53.364;-1.504;2023-02-01T06:29:28;6.40;99.90
24410;DHT22;12543;53.364;-1.504;2023-02-01T06:31:55;6.40;99.90
24410;DHT22;12543;53.364;-1.504;2023-02-01T06:34:22;6.40;99.90
24410;DHT22;12543;53.364;-1.504;2023-02-01T06:36:49;6.40;99.90
24410;DHT22;12543;53.364;-1.504;2023-02-01T06:39:16;6.40;99.90
24410;DHT22;12543;53.364;-1.504;2023-02-01T06:41:47;6.50;99.90
24410;DHT22;12543;53.364;-1.504;2023-02-01T06:44:15;6.50;99.90
24410;DHT22;12543;53.364;-1.504;2023-02-01T06:46:43;6.50;99.90
24410;DHT22;12543;53.364;-1.504;2023-02-01T06:49:14;6.50;99.90
24410;DHT22;12543;53.364;-1.504;2023-02-01T06:51:44;6.50;99.90
24410;DHT22;12543;53.364;-1.504;2023-02-01T06:54:11;6.50;99.90
24410;DHT22;12543;53.364;-1.504;2023-02-01T06:56:39;6.50;99.90
24410;DHT22;12543;53.364;-1.504;2023-02-01T06:59:06;6.50;99.90
24410;DHT22;12543;53.364;-1.504;2023-02-01T07:01:34;6.50;99.90
24410;DHT22;12543;53.364;-1.504;2023-02-01T07:04:01;6.60;99.90
24410;DHT22;12543;53.364;-1.504;2023-02-01T07:06:28;6.60;99.90
24410;DHT22;12543;53.364;-1.504;2023-02-01T07:08:55;6.60;99.90
24410;DHT22;12543;53.364;-1.504;2023-02-01T07:11:24;6.60;99.90
24410;DHT22;12543;53.364;-1.504;2023-02-01T07:13:51;6.60;99.90
24410;DHT22;12543;53.364;-1.504;2023-02-01T07:16:19;6.60;99.90
24410;DHT22;12543;53.364;-1.504;2023-02-01T07:18:47;6.60;99.90
24410;DHT22;12543;53.364;-1.504;2023-02-01T07:21:14;6.70;99.90
24410;DHT22;12543;53.364;-1.504;2023-02-01T07:23:41;6.70;99.90
24410;DHT22;12543;53.364;-1.504;2023-02-01T07:26:11;6.70;99.90
24410;DHT22;12543;53.364;-1.504;2023-02-01T07:28:43;6.70;99.90
24410;DHT22;12543;53.364;-1.504;2023-02-01T07:31:16;6.70;99.90
24410;DHT22;12543;53.364;-1.504;2023-02-01T07:33:46;6.80;99.90
24410;DHT22;12543;53.364;-1.504;2023-02-01T07:36:15;6.80;99.90
24410;DHT22;12543;53.364;-1.504;2023-02-01T07:38:43;6.80;99.90
24410;DHT22;12543;53.364;-1.504;2023-02-01T07:41:10;6.80;99.90
24410;DHT22;12543;53.364;-1.504;2023-02-01T07:43:37;6.90;99.90
24410;DHT22;12543;53.364;-1.504;2023-02-01T07:46:05;6.90;99.90
24410;DHT22;12543;53.364;-1.504;2023-02-01T07:48:33;6.90;99.90
24410;DHT22;12543;53.364;-1.504;2023-02-01T07:53:32;6.90;99.90
24410;DHT22;12543;53.364;-1.504;2023-02-01T07:55:59;6.90;99.90
24410;DHT22;12543;53.364;-1.504;2023-02-01T07:58:27;6.90;99.90
24410;DHT22;12543;53.364;-1.504;2023-02-01T08:00:55;6.90;99.90
24410;DHT22;12543;53.364;-1.504;2023-02-01T08:03:41;6.90;99.90
24410;DHT22;12543;53.364;-1.504;2023-02-01T08:06:08;6.90;99.90
24410;DHT22;12543;53.364;-1.504;2023-02-01T08:08:35;6.90;99.90
24410;DHT22;12543;53.364;-1.504;2023-02-01T08:11:04;6.90;99.90
24410;DHT22;12543;53.364;-1.504;2023-02-01T08:13:33;6.90;99.90
24410;DHT22;12543;53.364;-1.504;2023-02-01T08:16:04;6.90;99.90
24410;DHT22;12543;53.364;-1.504;2023-02-01T08:18:32;6.90;99.90
24410;DHT22;12543;53.364;-1.504;2023-02-01T08:23:37;6.90;99.90
24410;DHT22;12543;53.364;-1.504;2023-02-01T08:26:06;6.90;99.90
24410;DHT22;12543;53.364;-1.504;2023-02-01T08:28:34;7.00;99.90
24410;DHT22;12543;53.364;-1.504;2023-02-01T08:31:14;6.90;99.90
24410;DHT22;12543;53.364;-1.504;2023-02-01T08:33:42;6.90;99.90
24410;DHT22;12543;53.364;-1.504;2023-02-01T08:36:11;7.00;99.90
24410;DHT22;12543;53.364;-1.504;2023-02-01T08:38:39;7.00;99.90
24410;DHT22;12543;53.364;-1.504;2023-02-01T08:41:12;7.00;99.90
24410;DHT22;12543;53.364;-1.504;2023-02-01T08:43:40;7.00;99.90
24410;DHT22;12543;53.364;-1.504;2023-02-01T08:46:08;7.00;99.90
24410;DHT22;12543;53.364;-1.504;2023-02-01T08:48:36;7.00;99.90
24410;DHT22;12543;53.364;-1.504;2023-02-01T08:51:06;7.10;99.90
24410;DHT22;12543;53.364;-1.504;2023-02-01T08:53:33;7.10;99.90
24410;DHT22;12543;53.364;-1.504;2023-02-01T08:56:00;7.10;99.90
24410;DHT22;12543;53.364;-1.504;2023-02-01T08:58:27;7.10;99.90
24410;DHT22;12543;53.364;-1.504;2023-02-01T09:00:55;7.10;99.90
24410;DHT22;12543;53.364;-1.504;2023-02-01T09:03:31;7.10;99.90
24410;DHT22;12543;53.364;-1.504;2023-02-01T09:06:07;7.10;99.90
24410;DHT22;12543;53.364;-1.504;2023-02-01T09:08:35;7.20;99.90
24410;DHT22;12543;53.364;-1.504;2023-02-01T09:11:07;7.20;99.90
24410;DHT22;12543;53.364;-1.504;2023-02-01T09:13:34;7.20;99.90
24410;DHT22;12543;53.364;-1.504;2023-02-01T09:16:03;7.20;99.90
24410;DHT22;12543;53.364;-1.504;2023-02-01T09:18:30;7.30;99.90
24410;DHT22;12543;53.364;-1.504;2023-02-01T09:20:57;7.30;99.90
24410;DHT22;12543;53.364;-1.504;2023-02-01T09:23:25;7.40;99.90
24410;DHT22;12543;53.364;-1.504;2023-02-01T09:25:52;7.40;99.90
24410;DHT22;12543;53.364;-1.504;2023-02-01T09:28:19;7.50;99.90
24410;DHT22;12543;53.364;-1.504;2023-02-01T09:30:46;7.50;99.90
24410;DHT22;12543;53.364;-1.504;2023-02-01T09:33:14;7.50;99.90
24410;DHT22;12543;53.364;-1.504;2023-02-01T09:35:41;7.60;99.90
24410;DHT22;12543;53.364;-1.504;2023-02-01T09:38:08;7.60;99.90
24410;DHT22;12543;53.364;-1.504;2023-02-01T09:40:35;7.60;99.90
24410;DHT22;12543;53.364;-1.504;2023-02-01T09:46:27;7.70;99.90
24410;DHT22;12543;53.364;-1.504;2023-02-01T09:48:57;7.70;99.90
24410;DHT22;12543;53.364;-1.504;2023-02-01T09:51:31;7.80;99.90
24410;DHT22;12543;53.364;-1.504;2023-02-01T09:54:21;7.80;99.90
24410;DHT22;12543;53.364;-1.504;2023-02-01T09:57:04;7.80;99.90
24410;DHT22;12543;53.364;-1.504;2023-02-01T10:00:02;7.90;99.90
24410;DHT22;12543;53.364;-1.504;2023-02-01T10:02:39;7.90;99.90
24410;DHT22;12543;53.364;-1.504;2023-02-01T10:05:11;7.90;99.90
24410;DHT22;12543;53.364;-1.504;2023-02-01T10:07:58;8.00;99.90
24410;DHT22;12543;53.364;-1.504;2023-02-01T10:10:39;8.00;99.90
24410;DHT22;12543;53.364;-1.504;2023-02-01T10:16:24;8.10;99.90
24410;DHT22;12543;53.364;-1.504;2023-02-01T10:24:47;8.20;99.90
24410;DHT22;12543;53.364;-1.504;2023-02-01T10:29:59;8.20;99.90
24410;DHT22;12543;53.364;-1.504;2023-02-01T10:32:32;8.20;99.90
24410;DHT22;12543;53.364;-1.504;2023-02-01T10:37:36;8.20;99.90
24410;DHT22;12543;53.364;-1.504;2023-02-01T10:42:43;8.30;99.90
24410;DHT22;12543;53.364;-1.504;2023-02-01T10:45:18;8.20;99.90
24410;DHT22;12543;53.364;-1.504;2023-02-01T10:47:47;8.30;99.90
24410;DHT22;12543;53.364;-1.504;2023-02-01T10:50:41;8.30;99.90
24410;DHT22;12543;53.364;-1.504;2023-02-01T10:53:18;8.30;99.90
24410;DHT22;12543;53.364;-1.504;2023-02-01T10:55:49;8.30;99.90
24410;DHT22;12543;53.364;-1.504;2023-02-01T10:58:18;8.30;99.90
24410;DHT22;12543;53.364;-1.504;2023-02-01T11:01:03;8.30;99.90
24410;DHT22;12543;53.364;-1.504;2023-02-01T11:06:01;8.30;99.90
24410;DHT22;12543;53.364;-1.504;2023-02-01T11:08:29;8.30;99.90
24410;DHT22;12543;53.364;-1.504;2023-02-01T11:11:02;8.30;99.90
24410;DHT22;12543;53.364;-1.504;2023-02-01T11:13:32;8.40;99.90
24410;DHT22;12543;53.364;-1.504;2023-02-01T11:16:04;8.40;99.90
24410;DHT22;12543;53.364;-1.504;2023-02-01T11:18:35;8.40;99.90
24410;DHT22;12543;53.364;-1.504;2023-02-01T11:21:05;8.40;99.90
24410;DHT22;12543;53.364;-1.504;2023-02-01T11:23:33;8.40;99.90
24410;DHT22;12543;53.364;-1.504;2023-02-01T11:26:14;8.50;99.90
24410;DHT22;12543;53.364;-1.504;2023-02-01T11:28:57;8.50;99.90
24410;DHT22;12543;53.364;-1.504;2023-02-01T11:31:26;8.50;99.90
24410;DHT22;12543;53.364;-1.504;2023-02-01T11:33:59;8.50;99.90
24410;DHT22;12543;53.364;-1.504;2023-02-01T11:36:30;8.50;99.90
24410;DHT22;12543;53.364;-1.504;2023-02-01T11:41:42;8.50;99.90
24410;DHT22;12543;53.364;-1.504;2023-02-01T11:44:45;8.50;99.90
24410;DHT22;12543;53.364;-1.504;2023-02-01T11:50:00;8.50;99.90
24410;DHT22;12543;53.364;-1.504;2023-02-01T12:01:23;8.40;99.90
24410;DHT22;12543;53.364;-1.504;2023-02-01T12:06:59;8.40;99.90
24410;DHT22;12543;53.364;-1.504;2023-02-01T12:46:16;8.70;99.90
24410;DHT22;12543;53.364;-1.504;2023-02-01T12:49:04;8.70;99.90
24410;DHT22;12543;53.364;-1.504;2023-02-01T12:51:36;8.70;99.90
24410;DHT22;12543;53.364;-1.504;2023-02-01T12:54:20;8.70;99.90
24410;DHT22;12543;53.364;-1.504;2023-02-01T12:56:59;8.70;99.90
24410;DHT22;12543;53.364;-1.504;2023-02-01T12:59:40;8.70;99.90
24410;DHT22;12543;53.364;-1.504;2023-02-01T13:02:30;8.70;99.90
24410;DHT22;12543;53.364;-1.504;2023-02-01T13:10:42;8.80;99.90
24410;DHT22;12543;53.364;-1.504;2023-02-01T13:13:32;8.80;99.90
24410;DHT22;12543;53.364;-1.504;2023-02-01T13:16:28;8.80;99.90
24410;DHT22;12543;53.364;-1.504;2023-02-01T13:19:22;8.80;99.90
24410;DHT22;12543;53.364;-1.504;2023-02-01T13:22:03;8.70;99.90
24410;DHT22;12543;53.364;-1.504;2023-02-01T13:24:45;8.70;99.90
24410;DHT22;12543;53.364;-1.504;2023-02-01T13:27:14;8.70;99.90
24410;DHT22;12543;53.364;-1.504;2023-02-01T13:41:28;8.70;99.90
24410;DHT22;12543;53.364;-1.504;2023-02-01T13:44:00;8.60;99.90
24410;DHT22;12543;53.364;-1.504;2023-02-01T13:46:29;8.60;99.90
24410;DHT22;12543;53.364;-1.504;2023-02-01T13:48:59;8.60;99.90
24410;DHT22;12543;53.364;-1.504;2023-02-01T13:51:42;8.60;99.90
24410;DHT22;12543;53.364;-1.504;2023-02-01T13:54:36;8.50;99.90
24410;DHT22;12543;53.364;-1.504;2023-02-01T13:57:05;8.50;99.90
24410;DHT22;12543;53.364;-1.504;2023-02-01T14:00:07;8.50;99.90
24410;DHT22;12543;53.364;-1.504;2023-02-01T14:13:31;8.60;99.90
24410;DHT22;12543;53.364;-1.504;2023-02-01T14:26:26;8.60;99.90
24410;DHT22;12543;53.364;-1.504;2023-02-01T14:28:59;8.60;99.90
24410;DHT22;12543;53.364;-1.504;2023-02-01T14:31:48;8.60;99.90
24410;DHT22;12543;53.364;-1.504;2023-02-01T14:37:04;8.70;99.90
24410;DHT22;12543;53.364;-1.504;2023-02-01T14:39:34;8.70;99.90
24410;DHT22;12543;53.364;-1.504;2023-02-01T14:42:06;8.70;99.90
24410;DHT22;12543;53.364;-1.504;2023-02-01T14:44:44;8.70;99.90
24410;DHT22;12543;53.364;-1.504;2023-02-01T14:47:27;8.70;99.90
24410;DHT22;12543;53.364;-1.504;2023-02-01T14:50:50;8.70;99.90
24410;DHT22;12543;53.364;-1.504;2023-02-01T14:56:06;8.70;99.90
24410;DHT22;12543;53.364;-1.504;2023-02-01T15:01:25;8.70;99.90
24410;DHT22;12543;53.364;-1.504;2023-02-01T15:04:15;8.70;99.90
24410;DHT22;12543;53.364;-1.504;2023-02-01T15:06:54;8.60;99.90
24410;DHT22;12543;53.364;-1.504;2023-02-01T15:09:36;8.70;99.90
24410;DHT22;12543;53.364;-1.504;2023-02-01T15:15:03;8.60;99.90
24410;DHT22;12543;53.364;-1.504;2023-02-01T15:17:29;8.70;99.90
24410;DHT22;12543;53.364;-1.504;2023-02-01T15:20:14;8.60;99.90
24410;DHT22;12543;53.364;-1.504;2023-02-01T15:22:52;8.60;99.90
24410;DHT22;12543;53.364;-1.504;2023-02-01T15:25:31;8.60;99.90
24410;DHT22;12543;53.364;-1.504;2023-02-01T15:27:59;8.60;99.90
24410;DHT22;12543;53.364;-1.504;2023-02-01T15:30:29;8.60;99.90
24410;DHT22;12543;53.364;-1.504;2023-02-01T15:33:16;8.60;99.90
24410;DHT22;12543;53.364;-1.504;2023-02-01T15:35:45;8.60;99.90
24410;DHT22;12543;53.364;-1.504;2023-02-01T15:44:05;8.50;99.90
24410;DHT22;12543;53.364;-1.504;2023-02-01T15:46:40;8.50;99.90
24410;DHT22;12543;53.364;-1.504;2023-02-01T15:49:38;8.50;99.90
24410;DHT22;12543;53.364;-1.504;2023-02-01T15:52:21;8.50;99.90
24410;DHT22;12543;53.364;-1.504;2023-02-01T15:54:53;8.50;99.90
24410;DHT22;12543;53.364;-1.504;2023-02-01T15:57:40;8.50;99.90
24410;DHT22;12543;53.364;-1.504;2023-02-01T16:02:56;8.50;99.90
24410;DHT22;12543;53.364;-1.504;2023-02-01T16:05:39;8.40;99.90
24410;DHT22;12543;53.364;-1.504;2023-02-01T16:10:44;8.40;99.90
24410;DHT22;12543;53.364;-1.504;2023-02-01T16:13:14;8.40;99.90
24410;DHT22;12543;53.364;-1.504;2023-02-01T16:15:42;8.40;99.90
24410;DHT22;12543;53.364;-1.504;2023-02-01T16:18:10;8.40;99.90
24410;DHT22;12543;53.364;-1.504;2023-02-01T16:20:40;8.40;99.90
24410;DHT22;12543;53.364;-1.504;2023-02-01T16:23:08;8.40;99.90
24410;DHT22;12543;53.364;-1.504;2023-02-01T16:25:37;8.40;99.90
24410;DHT22;12543;53.364;-1.504;2023-02-01T16:28:04;8.40;99.90
24410;DHT22;12543;53.364;-1.504;2023-02-01T16:30:32;8.40;99.90
24410;DHT22;12543;53.364;-1.504;2023-02-01T16:33:01;8.40;99.90
24410;DHT22;12543;53.364;-1.504;2023-02-01T16:35:36;8.40;99.90
24410;DHT22;12543;53.364;-1.504;2023-02-01T16:38:08;8.40;99.90
24410;DHT22;12543;53.364;-1.504;2023-02-01T16:40:40;8.40;99.90
24410;DHT22;12543;53.364;-1.504;2023-02-01T16:43:12;8.40;99.90
24410;DHT22;12543;53.364;-1.504;2023-02-01T16:45:40;8.40;99.90
24410;DHT22;12543;53.364;-1.504;2023-02-01T16:48:22;8.40;99.90
24410;DHT22;12543;53.364;-1.504;2023-02-01T16:50:55;8.30;99.90
24410;DHT22;12543;53.364;-1.504;2023-02-01T16:53:24;8.30;99.90
24410;DHT22;12543;53.364;-1.504;2023-02-01T16:55:51;8.30;99.90
24410;DHT22;12543;53.364;-1.504;2023-02-01T16:58:20;8.40;99.90
24410;DHT22;12543;53.364;-1.504;2023-02-01T17:00:47;8.40;99.90
24410;DHT22;12543;53.364;-1.504;2023-02-01T17:03:15;8.40;99.90
24410;DHT22;12543;53.364;-1.504;2023-02-01T17:05:52;8.40;99.90
24410;DHT22;12543;53.364;-1.504;2023-02-01T17:08:30;8.40;99.90
24410;DHT22;12543;53.364;-1.504;2023-02-01T17:11:01;8.40;99.90
24410;DHT22;12543;53.364;-1.504;2023-02-01T17:13:28;8.40;99.90
24410;DHT22;12543;53.364;-1.504;2023-02-01T17:16:01;8.30;99.90
24410;DHT22;12543;53.364;-1.504;2023-02-01T17:18:33;8.30;99.90
24410;DHT22;12543;53.364;-1.504;2023-02-01T17:21:01;8.30;99.90
24410;DHT22;12543;53.364;-1.504;2023-02-01T17:23:31;8.30;99.90
24410;DHT22;12543;53.364;-1.504;2023-02-01T17:25:58;8.30;99.90
24410;DHT22;12543;53.364;-1.504;2023-02-01T17:28:25;8.30;99.90
24410;DHT22;12543;53.364;-1.504;2023-02-01T17:30:52;8.30;99.90
24410;DHT22;12543;53.364;-1.504;2023-02-01T17:33:40;8.20;99.90
24410;DHT22;12543;53.364;-1.504;2023-02-01T17:36:13;8.20;99.90
24410;DHT22;12543;53.364;-1.504;2023-02-01T17:38:42;8.20;99.90
24410;DHT22;12543;53.364;-1.504;2023-02-01T17:41:13;8.20;99.90
24410;DHT22;12543;53.364;-1.504;2023-02-01T17:43:40;8.20;99.90
24410;DHT22;12543;53.364;-1.504;2023-02-01T17:46:16;8.20;99.90
24410;DHT22;12543;53.364;-1.504;2023-02-01T17:48:44;8.20;99.90
24410;DHT22;12543;53.364;-1.504;2023-02-01T17:51:16;8.20;99.90
24410;DHT22;12543;53.364;-1.504;2023-02-01T17:53:44;8.20;99.90
24410;DHT22;12543;53.364;-1.504;2023-02-01T17:56:17;8.20;99.90
24410;DHT22;12543;53.364;-1.504;2023-02-01T17:58:46;8.10;99.90
24410;DHT22;12543;53.364;-1.504;2023-02-01T18:01:21;8.10;99.90
24410;DHT22;12543;53.364;-1.504;2023-02-01T18:03:49;8.10;99.90
24410;DHT22;12543;53.364;-1.504;2023-02-01T18:06:22;8.10;99.90
24410;DHT22;12543;53.364;-1.504;2023-02-01T18:08:49;8.10;99.90
24410;DHT22;12543;53.364;-1.504;2023-02-01T18:11:19;8.10;99.90
24410;DHT22;12543;53.364;-1.504;2023-02-01T18:13:47;8.10;99.90
24410;DHT22;12543;53.364;-1.504;2023-02-01T18:16:17;8.10;99.90
24410;DHT22;12543;53.364;-1.504;2023-02-01T18:18:45;8.10;99.90
24410;DHT22;12543;53.364;-1.504;2023-02-01T18:21:17;8.10;99.90
24410;DHT22;12543;53.364;-1.504;2023-02-01T18:23:44;8.10;99.90
24410;DHT22;12543;53.364;-1.504;2023-02-01T18:26:14;8.10;99.90
24410;DHT22;12543;53.364;-1.504;2023-02-01T18:28:42;8.10;99.90
24410;DHT22;12543;53.364;-1.504;2023-02-01T18:31:30;8.10;99.90
24410;DHT22;12543;53.364;-1.504;2023-02-01T18:33:58;8.10;99.90
24410;DHT22;12543;53.364;-1.504;2023-02-01T18:36:27;8.10;99.90
24410;DHT22;12543;53.364;-1.504;2023-02-01T18:38:56;8.10;99.90
24410;DHT22;12543;53.364;-1.504;2023-02-01T18:41:24;8.10;99.90
24410;DHT22;12543;53.364;-1.504;2023-02-01T18:43:52;8.10;99.90
24410;DHT22;12543;53.364;-1.504;2023-02-01T18:46:19;8.10;99.90
24410;DHT22;12543;53.364;-1.504;2023-02-01T18:48:47;8.10;99.90
24410;DHT22;12543;53.364;-1.504;2023-02-01T18:51:19;8.10;99.90
24410;DHT22;12543;53.364;-1.504;2023-02-01T18:53:47;8.10;99.90
24410;DHT22;12543;53.364;-1.504;2023-02-01T18:56:15;8.10;99.90